Авиационная погода в Актау

Регион: 
Погода METAR: 
UATE 221800Z 12009MPS 9999 BKN040 02/M03 Q1018 NOSIG RMK QFE761/1015
Время наблюдения
2022-01-22T18:00:00Z
Температура C
2.0
Точка росы
-3.0
Направление ветра
120
Скорость ветра (узлы)
17
Метео видимость
6.21
Облачность
BKN
Нижняя граница облачности (футы)
4000
Явления погоды
Условия полета
VFR
Аэропорт подробнее: 
BKN – значительная (рассеянная, разорванная) облачность;